sensor_id;sensor_type;location;lat;lon;timestamp;P1;durP1;ratioP1;P2;durP2;ratioP2
35891;SDS011;21993;42.672;23.296;2023-07-13T00:01:27;12.67;;;5.53;;
35891;SDS011;21993;42.672;23.296;2023-07-13T00:03:54;10.63;;;5.67;;
35891;SDS011;21993;42.672;23.296;2023-07-13T00:06:22;10.87;;;5.50;;
35891;SDS011;21993;42.672;23.296;2023-07-13T00:08:48;7.77;;;5.17;;
35891;SDS011;21993;42.672;23.296;2023-07-13T00:11:14;6.60;;;4.63;;
35891;SDS011;21993;42.672;23.296;2023-07-13T00:13:41;8.67;;;5.10;;
35891;SDS011;21993;42.672;23.296;2023-07-13T00:16:07;5.67;;;4.67;;
35891;SDS011;21993;42.672;23.296;2023-07-13T00:18:34;7.40;;;4.77;;
35891;SDS011;21993;42.672;23.296;2023-07-13T00:21:00;9.10;;;5.27;;
35891;SDS011;21993;42.672;23.296;2023-07-13T00:23:30;6.37;;;5.10;;
35891;SDS011;21993;42.672;23.296;2023-07-13T00:26:00;8.03;;;5.10;;
35891;SDS011;21993;42.672;23.296;2023-07-13T00:28:27;6.07;;;4.80;;
35891;SDS011;21993;42.672;23.296;2023-07-13T00:30:52;7.50;;;5.10;;
35891;SDS011;21993;42.672;23.296;2023-07-13T00:33:17;7.87;;;5.13;;
35891;SDS011;21993;42.672;23.296;2023-07-13T00:35:43;7.23;;;4.57;;
35891;SDS011;21993;42.672;23.296;2023-07-13T00:38:09;9.63;;;5.87;;
35891;SDS011;21993;42.672;23.296;2023-07-13T00:40:34;7.60;;;6.57;;
35891;SDS011;21993;42.672;23.296;2023-07-13T00:43:00;10.93;;;6.10;;
35891;SDS011;21993;42.672;23.296;2023-07-13T00:47:50;8.40;;;5.57;;
35891;SDS011;21993;42.672;23.296;2023-07-13T00:50:16;6.77;;;5.80;;
35891;SDS011;21993;42.672;23.296;2023-07-13T00:52:45;12.47;;;6.20;;
35891;SDS011;21993;42.672;23.296;2023-07-13T00:55:13;8.23;;;6.63;;
35891;SDS011;21993;42.672;23.296;2023-07-13T00:57:39;8.67;;;5.80;;
35891;SDS011;21993;42.672;23.296;2023-07-13T01:00:06;8.53;;;6.13;;
35891;SDS011;21993;42.672;23.296;2023-07-13T01:02:34;8.07;;;5.50;;
35891;SDS011;21993;42.672;23.296;2023-07-13T01:05:08;9.80;;;6.03;;
35891;SDS011;21993;42.672;23.296;2023-07-13T01:07:39;9.30;;;5.70;;
35891;SDS011;21993;42.672;23.296;2023-07-13T01:10:06;8.77;;;5.77;;
35891;SDS011;21993;42.672;23.296;2023-07-13T01:12:32;12.23;;;5.97;;
35891;SDS011;21993;42.672;23.296;2023-07-13T01:15:00;10.87;;;5.80;;
35891;SDS011;21993;42.672;23.296;2023-07-13T01:17:29;9.40;;;5.87;;
35891;SDS011;21993;42.672;23.296;2023-07-13T01:19:56;7.50;;;5.40;;
35891;SDS011;21993;42.672;23.296;2023-07-13T01:22:21;8.30;;;5.87;;
35891;SDS011;21993;42.672;23.296;2023-07-13T01:24:51;9.83;;;6.47;;
35891;SDS011;21993;42.672;23.296;2023-07-13T01:27:21;9.23;;;5.57;;
35891;SDS011;21993;42.672;23.296;2023-07-13T01:29:50;11.50;;;6.47;;
35891;SDS011;21993;42.672;23.296;2023-07-13T01:32:18;10.33;;;6.23;;
35891;SDS011;21993;42.672;23.296;2023-07-13T01:34:47;8.00;;;5.83;;
35891;SDS011;21993;42.672;23.296;2023-07-13T01:37:13;9.70;;;5.77;;
35891;SDS011;21993;42.672;23.296;2023-07-13T01:39:39;8.17;;;5.57;;
35891;SDS011;21993;42.672;23.296;2023-07-13T01:42:04;10.53;;;6.20;;
35891;SDS011;21993;42.672;23.296;2023-07-13T01:44:30;12.70;;;5.90;;
35891;SDS011;21993;42.672;23.296;2023-07-13T01:46:55;8.33;;;5.47;;
35891;SDS011;21993;42.672;23.296;2023-07-13T01:49:21;7.43;;;5.47;;
35891;SDS011;21993;42.672;23.296;2023-07-13T01:51:46;9.83;;;6.17;;
35891;SDS011;21993;42.672;23.296;2023-07-13T01:54:12;7.43;;;5.73;;
35891;SDS011;21993;42.672;23.296;2023-07-13T01:56:37;9.93;;;5.70;;
35891;SDS011;21993;42.672;23.296;2023-07-13T01:59:03;7.53;;;5.47;;
35891;SDS011;21993;42.672;23.296;2023-07-13T02:01:29;8.00;;;5.27;;
35891;SDS011;21993;42.672;23.296;2023-07-13T02:03:55;7.23;;;5.50;;
35891;SDS011;21993;42.672;23.296;2023-07-13T02:06:20;6.70;;;5.70;;
35891;SDS011;21993;42.672;23.296;2023-07-13T02:08:45;8.53;;;5.33;;
35891;SDS011;21993;42.672;23.296;2023-07-13T02:11:11;9.43;;;5.83;;
35891;SDS011;21993;42.672;23.296;2023-07-13T02:13:36;7.07;;;5.80;;
35891;SDS011;21993;42.672;23.296;2023-07-13T02:16:02;7.67;;;5.97;;
35891;SDS011;21993;42.672;23.296;2023-07-13T02:18:27;9.57;;;5.93;;
35891;SDS011;21993;42.672;23.296;2023-07-13T02:20:53;9.77;;;5.63;;
35891;SDS011;21993;42.672;23.296;2023-07-13T02:23:18;7.93;;;5.93;;
35891;SDS011;21993;42.672;23.296;2023-07-13T02:25:44;10.77;;;5.17;;
35891;SDS011;21993;42.672;23.296;2023-07-13T02:28:10;7.27;;;5.17;;
35891;SDS011;21993;42.672;23.296;2023-07-13T02:30:35;5.57;;;4.87;;
35891;SDS011;21993;42.672;23.296;2023-07-13T02:33:01;7.60;;;5.77;;
35891;SDS011;21993;42.672;23.296;2023-07-13T02:35:26;6.13;;;5.30;;
35891;SDS011;21993;42.672;23.296;2023-07-13T02:37:52;8.13;;;5.90;;
35891;SDS011;21993;42.672;23.296;2023-07-13T02:40:17;8.87;;;5.67;;
35891;SDS011;21993;42.672;23.296;2023-07-13T02:42:43;9.17;;;5.77;;
35891;SDS011;21993;42.672;23.296;2023-07-13T02:45:08;7.57;;;5.87;;
35891;SDS011;21993;42.672;23.296;2023-07-13T02:47:35;8.10;;;6.30;;
35891;SDS011;21993;42.672;23.296;2023-07-13T02:50:00;9.57;;;6.03;;
35891;SDS011;21993;42.672;23.296;2023-07-13T02:52:26;8.10;;;6.00;;
35891;SDS011;21993;42.672;23.296;2023-07-13T02:54:52;9.80;;;5.70;;
35891;SDS011;21993;42.672;23.296;2023-07-13T02:57:18;9.93;;;6.17;;
35891;SDS011;21993;42.672;23.296;2023-07-13T02:59:43;9.60;;;5.90;;
35891;SDS011;21993;42.672;23.296;2023-07-13T03:02:09;10.90;;;6.03;;
35891;SDS011;21993;42.672;23.296;2023-07-13T03:04:35;10.40;;;6.20;;
35891;SDS011;21993;42.672;23.296;2023-07-13T03:07:01;10.40;;;6.87;;
35891;SDS011;21993;42.672;23.296;2023-07-13T03:09:27;7.80;;;6.47;;
35891;SDS011;21993;42.672;23.296;2023-07-13T03:11:53;10.70;;;6.23;;
35891;SDS011;21993;42.672;23.296;2023-07-13T03:14:19;10.37;;;6.63;;
35891;SDS011;21993;42.672;23.296;2023-07-13T03:16:45;7.63;;;5.77;;
35891;SDS011;21993;42.672;23.296;2023-07-13T03:19:11;14.93;;;7.17;;
35891;SDS011;21993;42.672;23.296;2023-07-13T03:21:36;11.00;;;8.90;;
35891;SDS011;21993;42.672;23.296;2023-07-13T03:24:02;14.50;;;10.23;;
35891;SDS011;21993;42.672;23.296;2023-07-13T03:26:30;13.40;;;7.67;;
35891;SDS011;21993;42.672;23.296;2023-07-13T03:28:55;11.50;;;7.00;;
35891;SDS011;21993;42.672;23.296;2023-07-13T03:31:28;12.80;;;7.43;;
35891;SDS011;21993;42.672;23.296;2023-07-13T03:33:56;11.50;;;7.13;;
35891;SDS011;21993;42.672;23.296;2023-07-13T03:36:23;12.43;;;7.43;;
35891;SDS011;21993;42.672;23.296;2023-07-13T03:38:52;11.00;;;7.70;;
35891;SDS011;21993;42.672;23.296;2023-07-13T03:41:20;11.43;;;7.70;;
35891;SDS011;21993;42.672;23.296;2023-07-13T03:43:47;12.13;;;7.10;;
35891;SDS011;21993;42.672;23.296;2023-07-13T03:46:13;10.00;;;6.33;;
35891;SDS011;21993;42.672;23.296;2023-07-13T03:48:40;13.47;;;7.27;;
35891;SDS011;21993;42.672;23.296;2023-07-13T03:51:08;8.60;;;6.60;;
35891;SDS011;21993;42.672;23.296;2023-07-13T03:53:34;9.37;;;6.50;;
35891;SDS011;21993;42.672;23.296;2023-07-13T03:56:03;13.10;;;7.50;;
35891;SDS011;21993;42.672;23.296;2023-07-13T03:58:33;12.23;;;7.10;;
35891;SDS011;21993;42.672;23.296;2023-07-13T04:01:01;10.17;;;7.20;;
35891;SDS011;21993;42.672;23.296;2023-07-13T04:03:29;11.80;;;7.23;;
35891;SDS011;21993;42.672;23.296;2023-07-13T04:05:57;12.37;;;8.03;;
35891;SDS011;21993;42.672;23.296;2023-07-13T04:08:24;12.67;;;8.10;;
35891;SDS011;21993;42.672;23.296;2023-07-13T04:10:54;13.20;;;8.13;;
35891;SDS011;21993;42.672;23.296;2023-07-13T04:13:20;12.93;;;8.30;;
35891;SDS011;21993;42.672;23.296;2023-07-13T04:15:45;14.27;;;7.83;;
35891;SDS011;21993;42.672;23.296;2023-07-13T04:18:10;12.60;;;8.40;;
35891;SDS011;21993;42.672;23.296;2023-07-13T04:20:36;13.10;;;7.30;;
35891;SDS011;21993;42.672;23.296;2023-07-13T04:23:01;12.33;;;7.50;;
35891;SDS011;21993;42.672;23.296;2023-07-13T04:25:27;14.67;;;7.60;;
35891;SDS011;21993;42.672;23.296;2023-07-13T04:27:52;10.33;;;7.57;;
35891;SDS011;21993;42.672;23.296;2023-07-13T04:30:19;16.47;;;8.40;;
35891;SDS011;21993;42.672;23.296;2023-07-13T04:32:44;14.43;;;8.03;;
35891;SDS011;21993;42.672;23.296;2023-07-13T04:35:10;12.63;;;8.40;;
35891;SDS011;21993;42.672;23.296;2023-07-13T04:37:36;13.13;;;9.43;;
35891;SDS011;21993;42.672;23.296;2023-07-13T04:40:01;14.27;;;9.10;;
35891;SDS011;21993;42.672;23.296;2023-07-13T04:42:28;14.20;;;9.03;;
35891;SDS011;21993;42.672;23.296;2023-07-13T04:44:54;14.87;;;9.13;;
35891;SDS011;21993;42.672;23.296;2023-07-13T04:47:20;13.70;;;10.30;;
35891;SDS011;21993;42.672;23.296;2023-07-13T04:49:45;17.10;;;10.63;;
35891;SDS011;21993;42.672;23.296;2023-07-13T04:52:11;16.50;;;9.87;;
35891;SDS011;21993;42.672;23.296;2023-07-13T04:54:37;16.07;;;11.13;;
35891;SDS011;21993;42.672;23.296;2023-07-13T04:57:04;17.47;;;10.93;;
35891;SDS011;21993;42.672;23.296;2023-07-13T04:59:31;16.73;;;9.83;;
35891;SDS011;21993;42.672;23.296;2023-07-13T05:01:57;13.20;;;8.77;;
35891;SDS011;21993;42.672;23.296;2023-07-13T05:04:22;14.87;;;9.17;;
35891;SDS011;21993;42.672;23.296;2023-07-13T05:06:48;18.03;;;9.77;;
35891;SDS011;21993;42.672;23.296;2023-07-13T05:09:13;15.30;;;10.23;;
35891;SDS011;21993;42.672;23.296;2023-07-13T05:11:39;12.43;;;9.40;;
35891;SDS011;21993;42.672;23.296;2023-07-13T05:14:04;13.47;;;9.40;;
35891;SDS011;21993;42.672;23.296;2023-07-13T05:16:30;12.60;;;8.90;;
35891;SDS011;21993;42.672;23.296;2023-07-13T05:18:56;12.13;;;9.20;;
35891;SDS011;21993;42.672;23.296;2023-07-13T05:21:22;12.93;;;8.87;;
35891;SDS011;21993;42.672;23.296;2023-07-13T05:23:47;17.30;;;10.43;;
35891;SDS011;21993;42.672;23.296;2023-07-13T05:26:13;18.17;;;10.60;;
35891;SDS011;21993;42.672;23.296;2023-07-13T05:28:38;16.57;;;10.57;;
35891;SDS011;21993;42.672;23.296;2023-07-13T05:31:04;17.17;;;10.30;;
35891;SDS011;21993;42.672;23.296;2023-07-13T05:33:32;13.43;;;8.90;;
35891;SDS011;21993;42.672;23.296;2023-07-13T05:35:57;12.73;;;10.23;;
35891;SDS011;21993;42.672;23.296;2023-07-13T05:38:23;15.30;;;9.43;;
35891;SDS011;21993;42.672;23.296;2023-07-13T05:40:49;12.80;;;9.30;;
35891;SDS011;21993;42.672;23.296;2023-07-13T05:43:15;20.03;;;11.40;;
35891;SDS011;21993;42.672;23.296;2023-07-13T05:45:41;18.33;;;11.67;;
35891;SDS011;21993;42.672;23.296;2023-07-13T05:48:06;16.53;;;10.83;;
35891;SDS011;21993;42.672;23.296;2023-07-13T05:50:32;14.27;;;11.10;;
35891;SDS011;21993;42.672;23.296;2023-07-13T05:52:57;17.40;;;11.80;;
35891;SDS011;21993;42.672;23.296;2023-07-13T05:55:23;17.60;;;11.20;;
35891;SDS011;21993;42.672;23.296;2023-07-13T05:57:48;15.50;;;11.37;;
35891;SDS011;21993;42.672;23.296;2023-07-13T06:00:14;16.43;;;10.87;;
35891;SDS011;21993;42.672;23.296;2023-07-13T06:02:40;12.67;;;9.87;;
35891;SDS011;21993;42.672;23.296;2023-07-13T06:05:06;14.73;;;10.33;;
35891;SDS011;21993;42.672;23.296;2023-07-13T06:07:32;14.17;;;9.67;;
35891;SDS011;21993;42.672;23.296;2023-07-13T06:09:57;15.33;;;9.03;;
35891;SDS011;21993;42.672;23.296;2023-07-13T06:12:24;17.13;;;9.57;;
35891;SDS011;21993;42.672;23.296;2023-07-13T06:14:50;13.27;;;10.07;;
35891;SDS011;21993;42.672;23.296;2023-07-13T06:17:15;15.03;;;9.47;;
35891;SDS011;21993;42.672;23.296;2023-07-13T06:19:41;10.17;;;8.47;;
35891;SDS011;21993;42.672;23.296;2023-07-13T06:22:06;11.80;;;8.87;;
35891;SDS011;21993;42.672;23.296;2023-07-13T06:24:31;12.63;;;9.40;;
35891;SDS011;21993;42.672;23.296;2023-07-13T06:26:57;13.53;;;9.87;;
35891;SDS011;21993;42.672;23.296;2023-07-13T06:29:22;13.93;;;10.00;;
35891;SDS011;21993;42.672;23.296;2023-07-13T06:31:48;15.57;;;9.47;;
35891;SDS011;21993;42.672;23.296;2023-07-13T06:34:13;10.83;;;9.17;;
35891;SDS011;21993;42.672;23.296;2023-07-13T06:36:38;13.07;;;9.67;;
35891;SDS011;21993;42.672;23.296;2023-07-13T06:39:04;12.30;;;9.03;;
35891;SDS011;21993;42.672;23.296;2023-07-13T06:41:29;11.17;;;8.93;;
35891;SDS011;21993;42.672;23.296;2023-07-13T06:43:55;10.07;;;8.63;;
35891;SDS011;21993;42.672;23.296;2023-07-13T06:46:21;14.23;;;9.17;;
35891;SDS011;21993;42.672;23.296;2023-07-13T06:48:47;13.20;;;9.13;;
35891;SDS011;21993;42.672;23.296;2023-07-13T06:51:13;12.27;;;8.87;;
35891;SDS011;21993;42.672;23.296;2023-07-13T06:53:39;12.13;;;8.33;;
35891;SDS011;21993;42.672;23.296;2023-07-13T06:56:04;12.37;;;10.00;;
35891;SDS011;21993;42.672;23.296;2023-07-13T06:58:30;8.83;;;7.93;;
35891;SDS011;21993;42.672;23.296;2023-07-13T07:00:55;10.63;;;8.70;;
35891;SDS011;21993;42.672;23.296;2023-07-13T07:03:21;11.27;;;8.23;;
35891;SDS011;21993;42.672;23.296;2023-07-13T07:05:46;12.97;;;8.53;;
35891;SDS011;21993;42.672;23.296;2023-07-13T07:08:12;13.03;;;8.47;;
35891;SDS011;21993;42.672;23.296;2023-07-13T07:10:37;15.20;;;8.43;;
35891;SDS011;21993;42.672;23.296;2023-07-13T07:13:03;10.03;;;8.03;;
35891;SDS011;21993;42.672;23.296;2023-07-13T07:15:28;13.83;;;9.00;;
35891;SDS011;21993;42.672;23.296;2023-07-13T07:17:54;11.03;;;8.00;;
35891;SDS011;21993;42.672;23.296;2023-07-13T07:20:20;14.50;;;9.03;;
35891;SDS011;21993;42.672;23.296;2023-07-13T07:22:45;11.27;;;8.10;;
35891;SDS011;21993;42.672;23.296;2023-07-13T07:25:11;11.87;;;7.93;;
35891;SDS011;21993;42.672;23.296;2023-07-13T07:27:37;11.13;;;8.00;;
35891;SDS011;21993;42.672;23.296;2023-07-13T07:30:03;11.73;;;8.07;;
35891;SDS011;21993;42.672;23.296;2023-07-13T07:32:30;9.80;;;7.87;;
35891;SDS011;21993;42.672;23.296;2023-07-13T07:34:57;9.03;;;8.10;;
35891;SDS011;21993;42.672;23.296;2023-07-13T07:37:23;10.63;;;8.30;;
35891;SDS011;21993;42.672;23.296;2023-07-13T07:39:48;9.03;;;7.97;;
35891;SDS011;21993;42.672;23.296;2023-07-13T07:42:14;10.37;;;8.50;;
35891;SDS011;21993;42.672;23.296;2023-07-13T07:44:40;12.63;;;7.87;;
35891;SDS011;21993;42.672;23.296;2023-07-13T07:47:06;10.63;;;8.73;;
35891;SDS011;21993;42.672;23.296;2023-07-13T07:49:32;17.67;;;8.90;;
35891;SDS011;21993;42.672;23.296;2023-07-13T07:51:57;12.40;;;8.67;;
35891;SDS011;21993;42.672;23.296;2023-07-13T07:54:23;9.67;;;7.83;;
35891;SDS011;21993;42.672;23.296;2023-07-13T07:56:48;10.13;;;8.30;;
35891;SDS011;21993;42.672;23.296;2023-07-13T07:59:14;12.03;;;7.50;;
35891;SDS011;21993;42.672;23.296;2023-07-13T08:01:39;11.70;;;8.20;;
35891;SDS011;21993;42.672;23.296;2023-07-13T08:04:04;10.23;;;7.53;;
35891;SDS011;21993;42.672;23.296;2023-07-13T08:06:31;11.90;;;7.90;;
35891;SDS011;21993;42.672;23.296;2023-07-13T08:08:58;12.03;;;7.57;;
35891;SDS011;21993;42.672;23.296;2023-07-13T08:11:24;12.07;;;8.20;;
35891;SDS011;21993;42.672;23.296;2023-07-13T08:13:49;10.17;;;7.83;;
35891;SDS011;21993;42.672;23.296;2023-07-13T08:16:15;12.97;;;7.90;;
35891;SDS011;21993;42.672;23.296;2023-07-13T08:18:41;10.50;;;7.37;;
35891;SDS011;21993;42.672;23.296;2023-07-13T08:21:06;13.83;;;7.87;;
35891;SDS011;21993;42.672;23.296;2023-07-13T08:23:33;12.83;;;8.87;;
35891;SDS011;21993;42.672;23.296;2023-07-13T08:25:59;12.17;;;7.93;;
35891;SDS011;21993;42.672;23.296;2023-07-13T08:28:29;11.27;;;8.33;;
35891;SDS011;21993;42.672;23.296;2023-07-13T08:30:59;10.67;;;7.83;;
35891;SDS011;21993;42.672;23.296;2023-07-13T08:33:28;12.47;;;8.20;;
35891;SDS011;21993;42.672;23.296;2023-07-13T08:35:53;10.50;;;8.63;;
35891;SDS011;21993;42.672;23.296;2023-07-13T08:38:19;10.60;;;8.83;;
35891;SDS011;21993;42.672;23.296;2023-07-13T08:40:45;10.97;;;8.87;;
35891;SDS011;21993;42.672;23.296;2023-07-13T08:43:19;14.93;;;8.60;;
35891;SDS011;21993;42.672;23.296;2023-07-13T08:45:51;12.43;;;7.90;;
35891;SDS011;21993;42.672;23.296;2023-07-13T08:48:29;14.23;;;9.27;;
35891;SDS011;21993;42.672;23.296;2023-07-13T08:51:09;10.63;;;8.53;;
35891;SDS011;21993;42.672;23.296;2023-07-13T08:53:47;12.87;;;8.43;;
35891;SDS011;21993;42.672;23.296;2023-07-13T08:56:24;11.90;;;7.90;;
35891;SDS011;21993;42.672;23.296;2023-07-13T08:58:56;14.57;;;7.80;;
35891;SDS011;21993;42.672;23.296;2023-07-13T09:01:31;12.77;;;8.53;;
35891;SDS011;21993;42.672;23.296;2023-07-13T09:09:15;10.47;;;8.17;;
35891;SDS011;21993;42.672;23.296;2023-07-13T09:17:03;11.47;;;8.47;;
35891;SDS011;21993;42.672;23.296;2023-07-13T09:19:31;12.03;;;8.43;;
35891;SDS011;21993;42.672;23.296;2023-07-13T09:22:01;11.87;;;7.67;;
35891;SDS011;21993;42.672;23.296;2023-07-13T09:27:14;13.17;;;9.47;;
35891;SDS011;21993;42.672;23.296;2023-07-13T09:29:49;11.93;;;8.57;;
35891;SDS011;21993;42.672;23.296;2023-07-13T09:32:25;14.13;;;8.50;;
35891;SDS011;21993;42.672;23.296;2023-07-13T09:34:53;9.87;;;8.33;;
35891;SDS011;21993;42.672;23.296;2023-07-13T09:37:22;11.60;;;8.57;;
35891;SDS011;21993;42.672;23.296;2023-07-13T09:39:53;14.17;;;8.23;;
35891;SDS011;21993;42.672;23.296;2023-07-13T09:42:21;18.17;;;8.60;;
35891;SDS011;21993;42.672;23.296;2023-07-13T09:47:25;16.30;;;9.60;;
35891;SDS011;21993;42.672;23.296;2023-07-13T09:50:03;14.27;;;8.90;;
35891;SDS011;21993;42.672;23.296;2023-07-13T09:52:41;12.80;;;8.93;;
35891;SDS011;21993;42.672;23.296;2023-07-13T09:57:55;12.60;;;8.65;;
35891;SDS011;21993;42.672;23.296;2023-07-13T10:00:23;12.60;;;8.97;;
35891;SDS011;21993;42.672;23.296;2023-07-13T10:03:26;8.67;;;7.77;;
35891;SDS011;21993;42.672;23.296;2023-07-13T10:05:48;16.20;;;8.20;;
35891;SDS011;21993;42.672;23.296;2023-07-13T10:08:20;13.40;;;9.10;;
35891;SDS011;21993;42.672;23.296;2023-07-13T10:10:51;9.57;;;7.82;;
35891;SDS011;21993;42.672;23.296;2023-07-13T10:13:36;9.35;;;7.13;;
35891;SDS011;21993;42.672;23.296;2023-07-13T10:16:06;12.93;;;5.78;;
35891;SDS011;21993;42.672;23.296;2023-07-13T10:18:38;9.38;;;5.25;;
35891;SDS011;21993;42.672;23.296;2023-07-13T10:21:10;9.43;;;5.28;;
35891;SDS011;21993;42.672;23.296;2023-07-13T10:23:38;9.75;;;5.32;;
35891;SDS011;21993;42.672;23.296;2023-07-13T10:26:04;10.27;;;5.53;;
35891;SDS011;21993;42.672;23.296;2023-07-13T10:28:37;6.32;;;4.55;;
35891;SDS011;21993;42.672;23.296;2023-07-13T10:31:04;7.78;;;5.03;;
35891;SDS011;21993;42.672;23.296;2023-07-13T10:33:36;8.32;;;5.45;;
35891;SDS011;21993;42.672;23.296;2023-07-13T10:36:12;7.45;;;5.32;;
35891;SDS011;21993;42.672;23.296;2023-07-13T10:38:42;6.78;;;5.40;;
35891;SDS011;21993;42.672;23.296;2023-07-13T10:41:11;8.88;;;5.40;;
35891;SDS011;21993;42.672;23.296;2023-07-13T10:43:43;7.03;;;5.20;;
35891;SDS011;21993;42.672;23.296;2023-07-13T10:46:11;7.82;;;5.95;;
35891;SDS011;21993;42.672;23.296;2023-07-13T10:48:39;12.48;;;5.30;;
35891;SDS011;21993;42.672;23.296;2023-07-13T10:51:07;10.55;;;5.65;;
35891;SDS011;21993;42.672;23.296;2023-07-13T10:53:36;10.65;;;6.78;;
35891;SDS011;21993;42.672;23.296;2023-07-13T10:56:06;7.50;;;5.70;;
35891;SDS011;21993;42.672;23.296;2023-07-13T10:58:42;9.05;;;5.40;;
35891;SDS011;21993;42.672;23.296;2023-07-13T11:01:09;11.98;;;6.10;;
35891;SDS011;21993;42.672;23.296;2023-07-13T11:03:38;6.30;;;4.88;;
35891;SDS011;21993;42.672;23.296;2023-07-13T11:06:13;9.38;;;4.95;;
35891;SDS011;21993;42.672;23.296;2023-07-13T11:11:32;7.97;;;4.97;;
35891;SDS011;21993;42.672;23.296;2023-07-13T11:14:00;10.15;;;5.65;;
35891;SDS011;21993;42.672;23.296;2023-07-13T11:16:43;8.25;;;5.00;;
35891;SDS011;21993;42.672;23.296;2023-07-13T11:24:47;8.55;;;4.95;;
35891;SDS011;21993;42.672;23.296;2023-07-13T11:27:21;8.10;;;5.18;;
35891;SDS011;21993;42.672;23.296;2023-07-13T11:29:52;10.60;;;5.88;;
35891;SDS011;21993;42.672;23.296;2023-07-13T11:32:45;5.97;;;5.05;;
35891;SDS011;21993;42.672;23.296;2023-07-13T11:35:18;10.75;;;5.47;;
35891;SDS011;21993;42.672;23.296;2023-07-13T11:37:48;7.78;;;5.32;;
35891;SDS011;21993;42.672;23.296;2023-07-13T11:40:14;9.20;;;5.50;;
35891;SDS011;21993;42.672;23.296;2023-07-13T11:42:40;10.00;;;5.95;;
35891;SDS011;21993;42.672;23.296;2023-07-13T11:45:14;10.38;;;5.63;;
35891;SDS011;21993;42.672;23.296;2023-07-13T11:47:48;9.50;;;5.50;;
35891;SDS011;21993;42.672;23.296;2023-07-13T11:50:18;9.35;;;5.55;;
35891;SDS011;21993;42.672;23.296;2023-07-13T11:52:46;9.18;;;5.03;;
35891;SDS011;21993;42.672;23.296;2023-07-13T11:55:14;8.02;;;5.40;;
35891;SDS011;21993;42.672;23.296;2023-07-13T11:57:47;5.80;;;4.55;;
35891;SDS011;21993;42.672;23.296;2023-07-13T12:00:21;8.35;;;4.82;;
35891;SDS011;21993;42.672;23.296;2023-07-13T12:02:49;7.35;;;5.00;;
35891;SDS011;21993;42.672;23.296;2023-07-13T12:05:17;13.05;;;5.60;;
35891;SDS011;21993;42.672;23.296;2023-07-13T12:07:44;8.43;;;5.22;;
35891;SDS011;21993;42.672;23.296;2023-07-13T12:10:22;10.15;;;4.95;;
35891;SDS011;21993;42.672;23.296;2023-07-13T12:12:53;8.85;;;5.90;;
35891;SDS011;21993;42.672;23.296;2023-07-13T12:15:22;8.45;;;5.20;;
35891;SDS011;21993;42.672;23.296;2023-07-13T12:17:48;7.95;;;4.85;;
35891;SDS011;21993;42.672;23.296;2023-07-13T12:20:20;12.27;;;5.65;;
35891;SDS011;21993;42.672;23.296;2023-07-13T12:22:49;11.05;;;5.15;;
35891;SDS011;21993;42.672;23.296;2023-07-13T12:25:15;8.45;;;4.68;;
35891;SDS011;21993;42.672;23.296;2023-07-13T12:27:42;8.88;;;4.85;;
35891;SDS011;21993;42.672;23.296;2023-07-13T12:30:27;7.28;;;4.75;;
35891;SDS011;21993;42.672;23.296;2023-07-13T12:33:08;5.88;;;4.80;;
35891;SDS011;21993;42.672;23.296;2023-07-13T12:35:47;6.60;;;5.03;;
35891;SDS011;21993;42.672;23.296;2023-07-13T12:38:14;9.02;;;4.63;;
35891;SDS011;21993;42.672;23.296;2023-07-13T12:40:41;12.82;;;5.13;;
35891;SDS011;21993;42.672;23.296;2023-07-13T12:43:12;10.27;;;5.07;;
35891;SDS011;21993;42.672;23.296;2023-07-13T12:45:39;6.82;;;4.88;;
35891;SDS011;21993;42.672;23.296;2023-07-13T12:48:23;9.70;;;5.00;;
35891;SDS011;21993;42.672;23.296;2023-07-13T12:50:49;10.77;;;5.40;;
35891;SDS011;21993;42.672;23.296;2023-07-13T12:53:20;11.80;;;5.22;;
35891;SDS011;21993;42.672;23.296;2023-07-13T12:55:54;7.00;;;4.15;;
35891;SDS011;21993;42.672;23.296;2023-07-13T12:58:29;7.55;;;5.22;;
35891;SDS011;21993;42.672;23.296;2023-07-13T13:00:58;7.97;;;4.70;;
35891;SDS011;21993;42.672;23.296;2023-07-13T13:06:26;12.43;;;5.38;;
35891;SDS011;21993;42.672;23.296;2023-07-13T13:08:45;9.25;;;4.57;;
35891;SDS011;21993;42.672;23.296;2023-07-13T13:11:15;11.10;;;5.50;;
35891;SDS011;21993;42.672;23.296;2023-07-13T13:13:41;9.50;;;5.55;;
35891;SDS011;21993;42.672;23.296;2023-07-13T13:16:09;7.72;;;4.65;;
35891;SDS011;21993;42.672;23.296;2023-07-13T13:18:39;7.45;;;4.80;;
35891;SDS011;21993;42.672;23.296;2023-07-13T13:21:04;11.68;;;5.20;;
35891;SDS011;21993;42.672;23.296;2023-07-13T13:23:30;7.97;;;4.90;;
35891;SDS011;21993;42.672;23.296;2023-07-13T13:25:56;10.43;;;5.22;;
35891;SDS011;21993;42.672;23.296;2023-07-13T13:28:22;9.27;;;4.68;;
35891;SDS011;21993;42.672;23.296;2023-07-13T13:30:48;7.43;;;4.97;;
35891;SDS011;21993;42.672;23.296;2023-07-13T13:33:16;10.23;;;5.13;;
35891;SDS011;21993;42.672;23.296;2023-07-13T13:35:44;12.05;;;4.80;;
35891;SDS011;21993;42.672;23.296;2023-07-13T13:38:12;9.10;;;5.43;;
35891;SDS011;21993;42.672;23.296;2023-07-13T13:40:41;13.70;;;4.88;;
35891;SDS011;21993;42.672;23.296;2023-07-13T13:43:17;7.35;;;4.50;;
35891;SDS011;21993;42.672;23.296;2023-07-13T13:45:51;8.95;;;4.78;;
35891;SDS011;21993;42.672;23.296;2023-07-13T13:48:19;17.52;;;5.22;;
35891;SDS011;21993;42.672;23.296;2023-07-13T13:50:55;8.50;;;4.72;;
35891;SDS011;21993;42.672;23.296;2023-07-13T13:53:21;9.82;;;4.80;;
35891;SDS011;21993;42.672;23.296;2023-07-13T13:55:48;11.68;;;4.72;;
35891;SDS011;21993;42.672;23.296;2023-07-13T13:58:18;8.80;;;4.85;;
35891;SDS011;21993;42.672;23.296;2023-07-13T14:00:46;6.25;;;4.50;;
35891;SDS011;21993;42.672;23.296;2023-07-13T14:03:19;9.60;;;5.25;;
35891;SDS011;21993;42.672;23.296;2023-07-13T14:05:45;7.68;;;4.78;;
35891;SDS011;21993;42.672;23.296;2023-07-13T14:08:15;9.63;;;5.07;;
35891;SDS011;21993;42.672;23.296;2023-07-13T14:10:43;9.10;;;5.75;;
35891;SDS011;21993;42.672;23.296;2023-07-13T14:13:19;9.50;;;5.25;;
35891;SDS011;21993;42.672;23.296;2023-07-13T14:15:57;11.82;;;5.15;;
35891;SDS011;21993;42.672;23.296;2023-07-13T14:18:25;9.63;;;5.40;;
35891;SDS011;21993;42.672;23.296;2023-07-13T14:20:51;8.70;;;4.57;;
35891;SDS011;21993;42.672;23.296;2023-07-13T14:23:22;9.55;;;4.80;;
35891;SDS011;21993;42.672;23.296;2023-07-13T14:25:48;7.82;;;5.10;;
35891;SDS011;21993;42.672;23.296;2023-07-13T14:28:19;12.13;;;5.28;;
35891;SDS011;21993;42.672;23.296;2023-07-13T14:30:52;6.90;;;4.63;;
35891;SDS011;21993;42.672;23.296;2023-07-13T14:33:24;8.40;;;4.97;;
35891;SDS011;21993;42.672;23.296;2023-07-13T14:35:50;9.77;;;4.95;;
35891;SDS011;21993;42.672;23.296;2023-07-13T14:38:17;9.85;;;5.00;;
35891;SDS011;21993;42.672;23.296;2023-07-13T14:40:44;7.72;;;5.15;;
35891;SDS011;21993;42.672;23.296;2023-07-13T14:43:11;9.48;;;5.00;;
35891;SDS011;21993;42.672;23.296;2023-07-13T14:45:46;10.00;;;4.68;;
35891;SDS011;21993;42.672;23.296;2023-07-13T14:50:44;10.02;;;5.72;;
35891;SDS011;21993;42.672;23.296;2023-07-13T14:53:11;10.38;;;5.75;;
35891;SDS011;21993;42.672;23.296;2023-07-13T14:55:37;9.52;;;5.10;;
35891;SDS011;21993;42.672;23.296;2023-07-13T14:58:03;11.80;;;4.88;;
35891;SDS011;21993;42.672;23.296;2023-07-13T15:00:36;11.35;;;5.10;;
35891;SDS011;21993;42.672;23.296;2023-07-13T15:03:15;7.75;;;5.40;;
35891;SDS011;21993;42.672;23.296;2023-07-13T15:05:52;8.38;;;5.28;;